createdAt,value
2017-08-10T00:01:00.617Z,99.90
2017-08-10T00:03:28.337Z,99.90
2017-08-10T00:05:55.281Z,99.90
2017-08-10T00:08:22.265Z,99.90
2017-08-10T00:10:49.216Z,99.90
2017-08-10T00:13:16.933Z,99.90
2017-08-10T00:15:43.870Z,99.90
2017-08-10T00:18:10.850Z,99.90
2017-08-10T00:20:37.789Z,99.90
2017-08-10T00:23:04.740Z,99.90
2017-08-10T00:25:31.676Z,99.90
2017-08-10T00:27:58.632Z,99.90
2017-08-10T00:30:25.576Z,99.90
2017-08-10T00:32:52.544Z,99.90
2017-08-10T00:35:20.239Z,99.90
2017-08-10T00:37:47.193Z,99.90
2017-08-10T00:40:14.125Z,99.90
2017-08-10T00:42:41.099Z,99.90
2017-08-10T00:45:08.041Z,99.90
2017-08-10T00:47:34.972Z,99.90
2017-08-10T00:50:01.906Z,99.90
2017-08-10T00:52:28.846Z,99.90
2017-08-10T00:54:55.798Z,99.90
2017-08-10T00:57:22.729Z,99.90
2017-08-10T00:59:49.790Z,99.90
2017-08-10T01:02:16.725Z,99.90
2017-08-10T01:04:43.678Z,99.90
2017-08-10T01:07:10.595Z,99.90
2017-08-10T01:09:38.332Z,99.90
2017-08-10T01:12:05.281Z,99.90
2017-08-10T01:14:32.224Z,99.90
2017-08-10T01:16:59.184Z,99.90
2017-08-10T01:19:26.876Z,99.90
2017-08-10T01:21:53.839Z,99.90
2017-08-10T01:24:20.762Z,99.90
2017-08-10T01:26:47.722Z,99.90
2017-08-10T01:29:14.652Z,99.90
2017-08-10T01:31:42.272Z,99.90
2017-08-10T01:34:09.207Z,99.90
2017-08-10T01:36:36.170Z,99.90
2017-08-10T01:39:03.873Z,99.90
2017-08-10T01:41:30.829Z,99.90
2017-08-10T01:43:57.777Z,99.90
2017-08-10T01:46:24.734Z,99.90
2017-08-10T01:48:51.649Z,99.90
2017-08-10T01:51:18.637Z,99.90
2017-08-10T01:53:45.568Z,99.90
2017-08-10T01:56:12.503Z,99.90
2017-08-10T01:58:39.458Z,99.90
2017-08-10T02:01:06.393Z,99.90
2017-08-10T02:03:33.360Z,99.90
2017-08-10T02:06:01.055Z,99.90
2017-08-10T02:08:28.017Z,99.90
2017-08-10T02:10:55.976Z,99.90
2017-08-10T02:13:22.912Z,99.90
2017-08-10T02:15:49.880Z,99.90
2017-08-10T02:18:16.818Z,99.90
2017-08-10T02:20:43.751Z,99.90
2017-08-10T02:23:10.677Z,99.90
2017-08-10T02:25:37.628Z,99.90
2017-08-10T02:28:04.559Z,99.90
2017-08-10T02:30:32.280Z,99.90
2017-08-10T02:33:00.220Z,99.90
2017-08-10T02:35:27.188Z,99.90
2017-08-10T02:37:54.129Z,99.90
2017-08-10T02:40:21.064Z,99.90
2017-08-10T02:42:48.016Z,99.90
2017-08-10T02:45:14.934Z,99.90
2017-08-10T02:47:41.888Z,99.90
2017-08-10T02:50:08.834Z,99.90
2017-08-10T02:52:35.804Z,99.90
2017-08-10T02:55:02.745Z,99.90
2017-08-10T02:57:29.687Z,99.90
2017-08-10T02:59:56.628Z,99.90
2017-08-10T03:02:24.594Z,99.90
2017-08-10T03:04:51.519Z,99.90
2017-08-10T03:07:18.480Z,99.90
2017-08-10T03:09:45.516Z,99.90
2017-08-10T03:12:12.446Z,99.90
2017-08-10T03:14:39.400Z,99.90
2017-08-10T03:17:06.332Z,99.90
2017-08-10T03:19:33.267Z,99.90
2017-08-10T03:22:00.968Z,99.90
2017-08-10T03:24:28.784Z,99.90
2017-08-10T03:26:56.481Z,99.90
2017-08-10T03:29:23.428Z,99.90
2017-08-10T03:31:51.596Z,99.90
2017-08-10T03:34:18.560Z,99.90
2017-08-10T03:36:45.491Z,99.90
2017-08-10T03:39:12.415Z,99.90
2017-08-10T03:41:39.369Z,99.90
2017-08-10T03:44:06.308Z,99.90
2017-08-10T03:46:33.260Z,99.90
2017-08-10T03:49:00.193Z,99.90
2017-08-10T03:51:28.089Z,99.90
2017-08-10T03:53:55.028Z,99.90
2017-08-10T03:56:21.989Z,99.90
2017-08-10T03:58:49.872Z,99.90
2017-08-10T04:01:16.808Z,99.90
2017-08-10T04:03:43.762Z,99.90
2017-08-10T04:06:10.692Z,99.90
2017-08-10T04:08:37.644Z,99.90
2017-08-10T04:11:04.576Z,99.90
2017-08-10T04:13:31.524Z,99.90
2017-08-10T04:15:58.469Z,99.90
2017-08-10T04:18:26.432Z,99.90
2017-08-10T04:20:53.375Z,99.90
2017-08-10T04:23:20.326Z,99.90
2017-08-10T04:25:47.277Z,99.90
2017-08-10T04:28:14.261Z,99.90
2017-08-10T04:30:41.999Z,99.90
2017-08-10T04:33:08.939Z,99.90
2017-08-10T04:35:35.897Z,99.90
2017-08-10T04:38:03.632Z,99.90
2017-08-10T04:40:31.558Z,99.90
2017-08-10T04:42:59.469Z,99.90
2017-08-10T04:45:26.409Z,99.90
2017-08-10T04:47:53.393Z,99.90
2017-08-10T04:50:21.096Z,99.90
2017-08-10T04:52:48.064Z,99.90
2017-08-10T04:55:14.990Z,99.90
2017-08-10T04:57:41.969Z,99.90
2017-08-10T05:00:08.933Z,99.90
2017-08-10T05:02:36.642Z,99.90
2017-08-10T05:05:03.609Z,99.90
2017-08-10T05:07:31.551Z,99.90
2017-08-10T05:09:58.512Z,99.90
2017-08-10T05:12:25.472Z,99.90
2017-08-10T05:14:52.405Z,99.90
2017-08-10T05:17:19.335Z,99.90
2017-08-10T05:19:46.276Z,99.90
2017-08-10T05:22:13.207Z,99.90
2017-08-10T05:24:40.167Z,99.90
2017-08-10T05:27:07.145Z,99.90
2017-08-10T05:29:34.089Z,99.90
2017-08-10T05:32:01.052Z,99.90
2017-08-10T05:34:28.004Z,99.90
2017-08-10T05:36:55.714Z,99.90
2017-08-10T05:39:22.670Z,99.90
2017-08-10T05:41:50.623Z,99.90
2017-08-10T05:44:17.572Z,99.90
2017-08-10T05:46:44.506Z,99.90
2017-08-10T05:49:11.465Z,99.90
2017-08-10T05:51:38.404Z,99.90
2017-08-10T05:54:05.351Z,99.90
2017-08-10T05:56:33.216Z,99.90
2017-08-10T05:59:00.163Z,99.90
2017-08-10T06:01:27.120Z,99.90
2017-08-10T06:03:54.084Z,99.90
2017-08-10T06:06:21.849Z,99.90
2017-08-10T06:08:48.813Z,99.90
2017-08-10T06:11:16.517Z,99.90
2017-08-10T06:13:43.444Z,99.90
2017-08-10T06:16:10.391Z,99.90
2017-08-10T06:18:37.340Z,99.90
2017-08-10T06:21:04.344Z,99.90
2017-08-10T06:23:31.281Z,99.90
2017-08-10T06:25:58.232Z,99.90
2017-08-10T06:28:25.169Z,99.90
2017-08-10T06:30:52.132Z,99.90
2017-08-10T06:33:20.768Z,99.90
2017-08-10T06:35:47.728Z,99.90
2017-08-10T06:38:14.669Z,99.90
2017-08-10T06:40:41.616Z,99.90
2017-08-10T06:43:08.569Z,99.90
2017-08-10T06:45:35.504Z,99.90
2017-08-10T06:48:02.453Z,99.90
2017-08-10T06:50:29.389Z,99.90
2017-08-10T06:52:56.349Z,99.90
2017-08-10T06:55:23.283Z,99.90
2017-08-10T06:57:50.229Z,99.90
2017-08-10T07:00:17.163Z,99.90
2017-08-10T07:02:44.169Z,99.90
2017-08-10T07:05:11.868Z,99.90
2017-08-10T07:07:38.837Z,99.90
2017-08-10T07:10:05.784Z,99.90
2017-08-10T07:12:32.745Z,99.90
2017-08-10T07:15:00.662Z,99.90
2017-08-10T07:17:27.629Z,99.90
2017-08-10T07:19:54.601Z,99.90
2017-08-10T07:22:21.533Z,99.90
2017-08-10T07:24:48.484Z,99.90
2017-08-10T07:27:15.448Z,99.90
2017-08-10T07:29:43.143Z,99.90
2017-08-10T07:32:10.069Z,99.90
2017-08-10T07:34:37.025Z,99.90
2017-08-10T07:37:03.962Z,99.90
2017-08-10T07:39:30.945Z,99.90
2017-08-10T07:41:57.916Z,99.90
2017-08-10T07:44:24.835Z,99.90
2017-08-10T07:46:51.780Z,99.90
2017-08-10T07:49:18.736Z,99.90
2017-08-10T07:51:45.681Z,99.90
2017-08-10T07:54:12.640Z,99.90
2017-08-10T07:56:39.574Z,99.90
2017-08-10T07:59:06.521Z,99.90
2017-08-10T08:01:33.448Z,99.90
2017-08-10T08:04:01.413Z,99.90
2017-08-10T08:06:28.334Z,99.90
2017-08-10T08:08:55.285Z,99.90
2017-08-10T08:11:22.221Z,98.10
2017-08-10T08:13:49.189Z,97.30
2017-08-10T08:16:16.125Z,97.10
2017-08-10T08:18:43.077Z,97.20
2017-08-10T08:21:10.004Z,98.40
2017-08-10T08:23:36.957Z,97.40
2017-08-10T08:26:03.920Z,97.10
2017-08-10T08:28:30.877Z,97.40
2017-08-10T08:30:57.804Z,97.70
2017-08-10T08:33:24.777Z,96.30
2017-08-10T08:35:51.718Z,96.40
2017-08-10T08:38:19.048Z,93.80
2017-08-10T08:40:45.985Z,94.90
2017-08-10T08:43:13.981Z,94.60
2017-08-10T08:45:40.913Z,96.30
2017-08-10T08:48:07.845Z,96.10
2017-08-10T08:50:35.813Z,95.70
2017-08-10T08:53:02.745Z,95.60
2017-08-10T08:55:29.689Z,95.70
2017-08-10T08:57:56.622Z,95.30
2017-08-10T09:00:24.516Z,95.00
2017-08-10T09:02:51.445Z,94.90
2017-08-10T09:05:18.601Z,93.60
2017-08-10T09:07:46.460Z,91.20
2017-08-10T09:10:14.461Z,88.10
2017-08-10T09:12:41.400Z,89.40
2017-08-10T09:15:08.343Z,90.50
2017-08-10T09:17:35.267Z,89.50
2017-08-10T09:20:02.226Z,86.70
2017-08-10T09:22:29.154Z,88.20
2017-08-10T09:24:59.876Z,88.10
2017-08-10T09:27:26.838Z,90.70
2017-08-10T09:29:53.797Z,91.20
2017-08-10T09:32:20.738Z,92.70
2017-08-10T09:34:47.696Z,92.20
2017-08-10T09:37:14.626Z,93.10
2017-08-10T09:39:41.589Z,93.20
2017-08-10T09:42:08.525Z,92.10
2017-08-10T09:44:35.477Z,92.10
2017-08-10T09:47:02.413Z,92.20
2017-08-10T09:49:29.356Z,92.00
2017-08-10T09:51:56.289Z,91.60
2017-08-10T09:54:23.224Z,91.10
2017-08-10T09:56:53.305Z,91.10
2017-08-10T09:59:21.041Z,91.30
2017-08-10T10:01:47.983Z,91.40
2017-08-10T10:04:14.916Z,91.10
2017-08-10T10:06:41.873Z,89.50
2017-08-10T10:09:08.800Z,86.50
2017-08-10T10:11:35.764Z,81.90
2017-08-10T10:14:02.717Z,82.80
2017-08-10T10:16:29.696Z,81.00
2017-08-10T10:18:57.796Z,81.70
2017-08-10T10:21:25.661Z,81.40
2017-08-10T10:23:53.513Z,81.80
2017-08-10T10:26:20.484Z,81.30
2017-08-10T10:28:48.441Z,81.10
2017-08-10T10:31:15.388Z,81.60
2017-08-10T10:33:45.375Z,80.90
2017-08-10T10:36:12.312Z,80.10
2017-08-10T10:38:40.028Z,80.10
2017-08-10T10:41:06.964Z,80.10
2017-08-10T10:43:33.917Z,81.50
2017-08-10T10:46:00.859Z,82.20
2017-08-10T10:48:28.856Z,82.00
2017-08-10T10:50:55.784Z,82.80
2017-08-10T10:53:23.744Z,81.00
2017-08-10T10:55:50.689Z,77.80
2017-08-10T10:58:17.665Z,79.10
2017-08-10T11:00:45.486Z,78.10
2017-08-10T11:03:12.418Z,80.10
2017-08-10T11:05:40.305Z,79.00
2017-08-10T11:08:08.259Z,78.80
2017-08-10T11:10:35.218Z,79.20
2017-08-10T11:13:03.161Z,76.20
2017-08-10T11:15:30.117Z,73.80
2017-08-10T11:17:57.061Z,73.20
2017-08-10T11:20:24.020Z,72.70
2017-08-10T11:22:51.965Z,73.50
2017-08-10T11:25:18.917Z,72.80
2017-08-10T11:27:45.865Z,73.30
2017-08-10T11:30:12.812Z,73.10
2017-08-10T11:32:40.670Z,73.00
2017-08-10T11:35:07.621Z,73.30
2017-08-10T11:37:34.534Z,73.90
2017-08-10T11:40:02.258Z,73.60
2017-08-10T11:42:29.192Z,73.60
2017-08-10T11:44:56.235Z,73.70
2017-08-10T11:47:23.165Z,73.80
2017-08-10T11:49:50.139Z,74.10
2017-08-10T11:52:17.075Z,72.20
2017-08-10T11:54:44.013Z,73.50
2017-08-10T11:57:10.989Z,74.30
2017-08-10T11:59:37.925Z,75.10
2017-08-10T12:02:04.864Z,76.00
2017-08-10T12:04:31.821Z,74.60
2017-08-10T12:06:58.812Z,73.10
2017-08-10T12:09:25.769Z,72.00
2017-08-10T12:11:52.721Z,73.40
2017-08-10T12:14:19.639Z,74.80
2017-08-10T12:16:47.361Z,74.50
2017-08-10T12:19:14.296Z,74.40
2017-08-10T12:21:41.262Z,73.90
2017-08-10T12:24:08.192Z,72.00
2017-08-10T12:26:35.164Z,71.50
2017-08-10T12:29:03.089Z,69.40
2017-08-10T12:31:31.069Z,73.10
2017-08-10T12:33:58.017Z,74.40
2017-08-10T12:36:24.968Z,75.50
2017-08-10T12:38:51.924Z,76.10
2017-08-10T12:41:18.889Z,78.70
2017-08-10T12:43:45.823Z,78.40
2017-08-10T12:46:12.773Z,81.10
2017-08-10T12:48:40.608Z,82.10
2017-08-10T12:51:07.585Z,82.20
2017-08-10T12:53:35.275Z,80.90
2017-08-10T12:56:04.554Z,80.90
2017-08-10T12:58:32.254Z,80.10
2017-08-10T13:00:59.230Z,80.00
2017-08-10T13:03:26.173Z,79.10
2017-08-10T13:05:53.121Z,79.00
2017-08-10T13:08:20.093Z,81.00
2017-08-10T13:10:47.836Z,80.40
2017-08-10T13:13:14.781Z,80.30
2017-08-10T13:15:41.720Z,77.40
2017-08-10T13:18:08.673Z,77.40
2017-08-10T13:20:36.575Z,77.00
2017-08-10T13:23:03.530Z,75.80
2017-08-10T13:25:30.466Z,76.80
2017-08-10T13:27:57.440Z,75.90
2017-08-10T13:30:24.393Z,75.70
2017-08-10T13:32:51.358Z,75.60
2017-08-10T13:35:18.309Z,75.60
2017-08-10T13:37:46.276Z,75.60
2017-08-10T13:40:13.216Z,75.40
2017-08-10T13:42:40.172Z,76.20
2017-08-10T13:45:07.884Z,78.10
2017-08-10T13:47:34.853Z,77.50
2017-08-10T13:50:01.795Z,76.20
2017-08-10T13:52:28.729Z,77.20
2017-08-10T13:54:56.708Z,77.30
2017-08-10T13:57:23.645Z,74.20
2017-08-10T13:59:50.593Z,71.60
2017-08-10T14:02:18.422Z,71.90
2017-08-10T14:04:49.839Z,72.70
2017-08-10T14:07:18.676Z,73.10
2017-08-10T14:09:46.394Z,76.40
2017-08-10T14:12:13.336Z,76.40
2017-08-10T14:14:41.307Z,76.90
2017-08-10T14:17:08.262Z,77.50
2017-08-10T14:19:35.229Z,76.60
2017-08-10T14:22:03.136Z,73.20
2017-08-10T14:24:30.097Z,72.10
2017-08-10T14:26:57.062Z,69.90
2017-08-10T14:29:24.038Z,69.90
2017-08-10T14:31:51.741Z,72.50
2017-08-10T14:34:18.711Z,72.50
2017-08-10T14:36:46.669Z,74.00
2017-08-10T14:39:13.673Z,75.60
2017-08-10T14:41:41.388Z,75.30
2017-08-10T14:44:08.340Z,75.30
2017-08-10T14:46:35.281Z,75.50
2017-08-10T14:49:02.215Z,76.10
2017-08-10T14:51:29.145Z,74.50
2017-08-10T14:53:56.097Z,73.40
2017-08-10T14:56:23.039Z,74.00
2017-08-10T14:58:50.002Z,75.70
2017-08-10T15:01:16.957Z,76.90
2017-08-10T15:03:43.915Z,79.70
2017-08-10T15:06:10.864Z,80.60
2017-08-10T15:08:37.789Z,81.50
2017-08-10T15:11:05.521Z,83.50
2017-08-10T15:13:32.454Z,83.50
2017-08-10T15:15:59.410Z,83.60
2017-08-10T15:18:26.342Z,82.10
2017-08-10T15:20:54.069Z,82.50
2017-08-10T15:23:22.019Z,82.30
2017-08-10T15:25:48.992Z,81.60
2017-08-10T15:28:17.937Z,80.90
2017-08-10T15:30:44.876Z,79.10
2017-08-10T15:33:13.797Z,77.50
2017-08-10T15:35:40.827Z,79.20
2017-08-10T15:38:07.784Z,78.70
2017-08-10T15:40:34.727Z,79.40
2017-08-10T15:43:01.706Z,79.50
2017-08-10T15:45:28.657Z,79.10
2017-08-10T15:47:55.622Z,78.40
2017-08-10T15:50:23.312Z,79.10
2017-08-10T15:52:50.268Z,79.10
2017-08-10T15:55:19.117Z,78.90
2017-08-10T15:57:46.841Z,79.40
2017-08-10T16:00:13.777Z,79.30
2017-08-10T16:02:40.724Z,80.00
2017-08-10T16:05:07.669Z,80.30
2017-08-10T16:07:34.618Z,81.20
2017-08-10T16:10:01.566Z,80.00
2017-08-10T16:12:30.308Z,80.50
2017-08-10T16:14:58.267Z,80.60
2017-08-10T16:17:25.227Z,80.90
2017-08-10T16:19:52.265Z,78.10
2017-08-10T16:22:20.145Z,75.70
2017-08-10T16:24:47.088Z,70.20
2017-08-10T16:27:14.074Z,65.40
2017-08-10T16:29:43.073Z,62.90
2017-08-10T16:32:10.013Z,61.10
2017-08-10T16:34:36.969Z,60.60
2017-08-10T16:37:03.922Z,63.10
2017-08-10T16:39:30.861Z,64.30
2017-08-10T16:41:57.792Z,63.20
2017-08-10T16:44:24.751Z,61.90
2017-08-10T16:46:51.703Z,61.60
2017-08-10T16:49:18.682Z,63.50
2017-08-10T16:51:45.656Z,66.30
2017-08-10T16:54:13.370Z,69.10
2017-08-10T16:56:41.341Z,69.10
2017-08-10T16:59:08.293Z,70.60
2017-08-10T17:01:35.215Z,72.60
2017-08-10T17:04:02.225Z,75.00
2017-08-10T17:06:30.953Z,77.60
2017-08-10T17:08:57.904Z,77.10
2017-08-10T17:11:24.836Z,78.30
2017-08-10T17:13:51.792Z,78.90
2017-08-10T17:16:18.730Z,79.10
2017-08-10T17:18:45.705Z,79.80
2017-08-10T17:21:12.637Z,80.30
2017-08-10T17:23:43.482Z,80.90
2017-08-10T17:26:11.181Z,83.90
2017-08-10T17:28:38.138Z,84.00
2017-08-10T17:31:05.073Z,84.80
2017-08-10T17:33:32.115Z,86.10
2017-08-10T17:35:59.065Z,88.20
2017-08-10T17:38:26.029Z,88.70
2017-08-10T17:40:53.725Z,87.90
2017-08-10T17:43:20.677Z,87.90
2017-08-10T17:45:48.414Z,90.40
2017-08-10T17:48:15.378Z,90.40
2017-08-10T17:50:43.284Z,89.50
2017-08-10T17:53:10.261Z,88.30
2017-08-10T17:55:37.212Z,88.20
2017-08-10T17:58:05.928Z,88.70
2017-08-10T18:00:34.812Z,88.60
2017-08-10T18:03:02.021Z,89.00
2017-08-10T18:05:28.952Z,90.10
2017-08-10T18:07:55.906Z,90.30
2017-08-10T18:10:22.841Z,91.00
2017-08-10T18:12:51.820Z,91.10
2017-08-10T18:15:18.754Z,92.50
2017-08-10T18:17:45.889Z,92.30
2017-08-10T18:20:12.853Z,93.10
2017-08-10T18:22:39.823Z,94.90
2017-08-10T18:25:07.819Z,94.60
2017-08-10T18:27:34.726Z,96.20
2017-08-10T18:30:01.683Z,94.60
2017-08-10T18:32:29.602Z,94.40
2017-08-10T18:34:56.677Z,95.20
2017-08-10T18:37:24.613Z,94.50
2017-08-10T18:39:51.547Z,94.90
2017-08-10T18:42:18.525Z,94.80
2017-08-10T18:44:45.458Z,94.60
2017-08-10T18:47:12.386Z,95.80
2017-08-10T18:49:39.349Z,95.90
2017-08-10T18:52:06.322Z,96.30
2017-08-10T18:54:36.025Z,96.90
2017-08-10T18:57:03.937Z,96.90
2017-08-10T18:59:36.025Z,98.10
2017-08-10T19:02:02.990Z,99.80
2017-08-10T19:04:31.026Z,98.90
2017-08-10T19:06:57.966Z,98.90
2017-08-10T19:09:25.841Z,99.00
2017-08-10T19:11:52.773Z,99.90
2017-08-10T19:14:19.732Z,99.90
2017-08-10T19:16:46.665Z,99.90
2017-08-10T19:19:13.632Z,99.90
2017-08-10T19:21:40.575Z,99.90
2017-08-10T19:24:07.533Z,99.90
2017-08-10T19:26:34.473Z,99.90
2017-08-10T19:29:01.429Z,99.90
2017-08-10T19:31:29.375Z,99.90
2017-08-10T19:33:56.377Z,99.90
2017-08-10T19:36:24.106Z,99.90
2017-08-10T19:38:51.037Z,99.90
2017-08-10T19:41:18.979Z,99.90
2017-08-10T19:43:45.908Z,99.90
2017-08-10T19:46:12.856Z,99.90
2017-08-10T19:48:39.784Z,99.90
2017-08-10T19:51:07.487Z,99.90
2017-08-10T19:53:34.408Z,99.90
2017-08-10T19:56:01.391Z,99.90
2017-08-10T19:58:28.337Z,99.90
2017-08-10T20:00:55.360Z,99.90
2017-08-10T20:03:22.343Z,99.90
2017-08-10T20:05:50.305Z,99.90
2017-08-10T20:08:18.234Z,99.90
2017-08-10T20:10:48.397Z,99.90
2017-08-10T20:13:15.365Z,99.90
2017-08-10T20:15:43.233Z,99.90
2017-08-10T20:18:10.953Z,99.90
2017-08-10T20:20:38.897Z,99.90
2017-08-10T20:23:05.873Z,99.90
2017-08-10T20:25:33.810Z,99.90
2017-08-10T20:28:00.779Z,99.90
2017-08-10T20:30:28.641Z,99.90
2017-08-10T20:33:01.307Z,99.90
2017-08-10T20:35:28.250Z,99.90
2017-08-10T20:37:55.233Z,99.90
2017-08-10T20:40:22.168Z,99.90
2017-08-10T20:42:49.120Z,99.90
2017-08-10T20:45:16.047Z,99.90
2017-08-10T20:47:43.001Z,99.90
2017-08-10T20:50:10.877Z,99.90
2017-08-10T20:52:38.809Z,99.90
2017-08-10T20:55:05.768Z,99.90
2017-08-10T20:57:32.715Z,99.90
2017-08-10T20:59:59.706Z,99.90
2017-08-10T21:02:27.425Z,99.90
2017-08-10T21:04:54.410Z,99.90
2017-08-10T21:07:21.374Z,99.90
2017-08-10T21:09:49.284Z,99.90
2017-08-10T21:12:19.943Z,99.90
2017-08-10T21:14:46.893Z,99.90
2017-08-10T21:17:15.877Z,99.90
2017-08-10T21:19:42.857Z,99.90
2017-08-10T21:22:10.577Z,99.90
2017-08-10T21:24:42.480Z,99.90
2017-08-10T21:27:09.407Z,99.90
2017-08-10T21:29:37.150Z,99.90
2017-08-10T21:32:05.029Z,99.90
2017-08-10T21:34:31.994Z,99.90
2017-08-10T21:36:58.946Z,99.90
2017-08-10T21:39:25.920Z,99.90
2017-08-10T21:41:54.037Z,99.90
2017-08-10T21:44:21.000Z,99.90
2017-08-10T21:46:47.924Z,99.90
2017-08-10T21:49:14.855Z,99.90
2017-08-10T21:51:41.792Z,99.90
2017-08-10T21:54:08.749Z,99.90
2017-08-10T21:56:35.680Z,99.90
2017-08-10T21:59:04.593Z,99.90
2017-08-10T22:01:31.532Z,99.90
2017-08-10T22:03:58.489Z,99.90
2017-08-10T22:06:30.370Z,99.90
2017-08-10T22:08:58.223Z,99.90
2017-08-10T22:11:25.165Z,99.90
2017-08-10T22:13:52.141Z,99.90
2017-08-10T22:16:19.104Z,99.90
2017-08-10T22:18:47.829Z,99.90
2017-08-10T22:21:14.764Z,99.90
2017-08-10T22:23:41.721Z,99.90
2017-08-10T22:26:08.644Z,99.90
2017-08-10T22:28:35.628Z,99.90
2017-08-10T22:31:02.575Z,99.90
2017-08-10T22:33:29.550Z,99.90
2017-08-10T22:35:57.245Z,99.90
2017-08-10T22:38:25.096Z,99.90
2017-08-10T22:40:52.891Z,99.90
2017-08-10T22:43:19.835Z,99.90
2017-08-10T22:45:46.789Z,99.90
2017-08-10T22:48:13.717Z,99.90
2017-08-10T22:50:40.669Z,99.90
2017-08-10T22:53:08.504Z,99.90
2017-08-10T22:55:36.220Z,99.90
2017-08-10T22:58:03.152Z,99.90
2017-08-10T23:00:30.104Z,99.90
2017-08-10T23:02:57.037Z,99.90
2017-08-10T23:05:25.000Z,99.90
2017-08-10T23:07:51.933Z,99.90
2017-08-10T23:10:18.897Z,99.90
2017-08-10T23:12:45.829Z,99.90
2017-08-10T23:15:12.765Z,99.90
2017-08-10T23:17:39.700Z,99.90
2017-08-10T23:20:06.652Z,99.90
2017-08-10T23:22:33.575Z,99.90
2017-08-10T23:25:01.296Z,99.90
2017-08-10T23:27:28.230Z,99.90
2017-08-10T23:29:55.190Z,99.90
2017-08-10T23:32:22.104Z,99.90
2017-08-10T23:34:49.037Z,99.90
2017-08-10T23:37:15.973Z,99.90
2017-08-10T23:39:42.910Z,99.90
2017-08-10T23:42:10.633Z,99.90
2017-08-10T23:44:37.551Z,99.90
2017-08-10T23:47:04.517Z,99.90
2017-08-10T23:49:31.469Z,99.90
2017-08-10T23:51:58.420Z,99.90
2017-08-10T23:54:25.347Z,99.90
2017-08-10T23:56:53.296Z,99.90
2017-08-10T23:59:20.251Z,99.90
